Time;durP1;ratioP1;P1;durP2;ratioP2;P2;SDS_P1;SDS_P2;PMS_P1;PMS_P2;Temp;Humidity;BMP_temperature;BMP_pressure;BME280_temperature;BME280_humidity;BME280_pressure;Samples;Min_cycle;Max_cycle;Signal;HPM_P1;HPM_P2
2023/12/28 00:01:55;;;;;;;5.63;2.87;;;;;;;5.04;100.00;96474.50;5035616;28;20213;-67
2023/12/28 00:04:21;;;;;;;6.67;2.60;;;;;;;4.92;100.00;96483.44;5037894;28;20223;-67
2023/12/28 00:06:48;;;;;;;7.17;3.10;;;;;;;4.56;100.00;96491.13;5039793;28;20228;-67
2023/12/28 00:09:14;;;;;;;4.83;2.97;;;;;;;4.77;100.00;96484.81;5040043;28;20708;-67
2023/12/28 00:11:41;;;;;;;5.13;2.93;;;;;;;4.61;100.00;96487.13;5039739;28;20219;-67
2023/12/28 00:14:07;;;;;;;6.77;2.70;;;;;;;4.57;100.00;96490.97;5040368;28;20217;-68
2023/12/28 00:16:36;;;;;;;5.43;2.77;;;;;;;4.61;100.00;96486.28;5039155;28;20220;-67
2023/12/28 00:19:04;;;;;;;7.37;2.83;;;;;;;4.79;100.00;96482.09;5039561;28;20255;-67
2023/12/28 00:21:30;;;;;;;9.47;3.20;;;;;;;4.41;100.00;96489.84;5039387;28;20602;-67
2023/12/28 00:23:57;;;;;;;4.47;2.83;;;;;;;4.22;100.00;96492.38;5039855;28;20221;-67
2023/12/28 00:26:24;;;;;;;7.17;3.20;;;;;;;4.32;100.00;96501.06;5038700;28;20232;-67
2023/12/28 00:28:50;;;;;;;7.03;3.10;;;;;;;4.01;100.00;96502.06;5040190;28;20214;-67
2023/12/28 00:31:17;;;;;;;4.90;2.73;;;;;;;4.19;100.00;96500.50;5039822;28;20259;-67
2023/12/28 00:33:43;;;;;;;4.90;2.50;;;;;;;4.28;100.00;96500.50;5038955;28;20235;-67
2023/12/28 00:36:11;;;;;;;6.23;2.83;;;;;;;4.38;100.00;96510.97;5039240;28;20731;-67
2023/12/28 00:38:38;;;;;;;4.27;2.83;;;;;;;4.35;100.00;96522.50;5039407;28;20701;-67
2023/12/28 00:41:04;;;;;;;5.93;2.97;;;;;;;4.44;100.00;96526.09;5039825;28;20212;-67
2023/12/28 00:43:31;;;;;;;5.30;2.70;;;;;;;4.50;100.00;96521.16;5038895;28;20229;-67
2023/12/28 00:45:58;;;;;;;5.10;3.07;;;;;;;4.57;100.00;96531.88;5039468;28;20201;-68
2023/12/28 00:48:24;;;;;;;5.37;2.60;;;;;;;4.62;100.00;96520.09;5039346;28;20573;-68
2023/12/28 00:50:51;;;;;;;5.43;2.67;;;;;;;4.68;100.00;96523.97;5040110;28;20212;-67
2023/12/28 00:53:19;;;;;;;5.53;2.77;;;;;;;4.72;100.00;96522.72;5038672;28;20229;-68
2023/12/28 00:55:46;;;;;;;5.77;2.93;;;;;;;4.51;100.00;96519.38;5039527;28;20212;-67
2023/12/28 00:58:12;;;;;;;6.73;2.50;;;;;;;4.62;100.00;96514.03;5039464;28;20208;-67
2023/12/28 01:00:39;;;;;;;7.03;2.70;;;;;;;4.68;100.00;96510.91;5039384;28;20227;-68
2023/12/28 01:03:05;;;;;;;7.10;2.73;;;;;;;4.59;100.00;96506.50;5038615;28;20242;-67
2023/12/28 01:05:32;;;;;;;4.53;2.80;;;;;;;4.86;100.00;96497.88;5038669;28;20228;-67
2023/12/28 01:07:58;;;;;;;4.97;2.73;;;;;;;5.06;100.00;96503.94;5038861;28;20232;-67
2023/12/28 01:10:26;;;;;;;6.57;2.93;;;;;;;5.32;100.00;96505.03;5039025;28;20211;-67
2023/12/28 01:12:53;;;;;;;4.30;2.30;;;;;;;5.38;100.00;96520.97;5038043;28;20225;-67
2023/12/28 01:15:20;;;;;;;5.03;2.43;;;;;;;5.50;100.00;96519.88;5038381;28;20209;-67
2023/12/28 01:17:47;;;;;;;5.83;2.60;;;;;;;5.55;100.00;96522.91;5039353;28;20288;-67
2023/12/28 01:20:14;;;;;;;4.70;2.33;;;;;;;5.75;100.00;96506.19;5039019;28;20208;-67
2023/12/28 01:22:40;;;;;;;3.37;2.40;;;;;;;5.77;100.00;96509.53;5037829;28;20228;-67
2023/12/28 01:25:07;;;;;;;5.33;2.87;;;;;;;5.69;100.00;96506.75;5038262;28;20205;-67
2023/12/28 01:27:35;;;;;;;4.20;2.47;;;;;;;5.64;100.00;96514.22;5038593;28;20236;-67
2023/12/28 01:30:02;;;;;;;9.37;3.00;;;;;;;5.44;100.00;96517.81;5038695;28;20198;-67
2023/12/28 01:32:28;;;;;;;6.73;2.53;;;;;;;5.59;100.00;96526.88;5037459;28;20201;-67
2023/12/28 01:34:55;;;;;;;5.63;2.90;;;;;;;5.48;100.00;96521.78;5038909;28;21182;-67
2023/12/28 01:37:21;;;;;;;5.23;2.80;;;;;;;5.61;100.00;96517.94;5038282;28;20201;-67
2023/12/28 01:39:48;;;;;;;7.40;3.47;;;;;;;5.62;100.00;96519.56;5038722;28;20227;-67
2023/12/28 01:42:14;;;;;;;7.17;2.87;;;;;;;5.51;100.00;96516.28;5037865;28;20201;-67
2023/12/28 01:44:42;;;;;;;5.63;2.70;;;;;;;5.48;100.00;96516.56;5038493;28;20675;-67
2023/12/28 01:47:09;;;;;;;6.27;3.07;;;;;;;5.51;100.00;96526.72;5037865;28;20221;-67
2023/12/28 01:49:37;;;;;;;7.20;3.00;;;;;;;5.63;100.00;96521.22;5038159;28;20217;-67
2023/12/28 01:52:05;;;;;;;5.33;2.53;;;;;;;5.67;100.00;96517.34;5037893;28;20205;-68
2023/12/28 01:54:31;;;;;;;5.00;2.40;;;;;;;5.62;100.00;96511.72;5038582;28;20224;-67
2023/12/28 01:57:00;;;;;;;6.47;2.83;;;;;;;5.73;100.00;96513.38;5038003;28;20214;-67
2023/12/28 01:59:26;;;;;;;4.80;2.80;;;;;;;5.73;100.00;96510.75;5037316;28;20197;-67
2023/12/28 02:01:54;;;;;;;5.37;2.43;;;;;;;5.72;100.00;96511.72;5037625;28;20213;-68
2023/12/28 02:04:27;;;;;;;5.97;2.60;;;;;;;5.58;100.00;96523.41;5038113;28;20239;-67
2023/12/28 02:06:57;;;;;;;4.83;2.47;;;;;;;5.68;100.00;96528.66;5038233;28;20610;-67
2023/12/28 02:09:23;;;;;;;6.00;2.60;;;;;;;5.69;100.00;96531.13;5037839;28;20201;-68
2023/12/28 02:11:50;;;;;;;3.47;2.13;;;;;;;5.91;100.00;96537.84;5037816;28;20210;-67
2023/12/28 02:14:17;;;;;;;5.17;2.80;;;;;;;5.95;100.00;96532.19;5037680;28;20250;-67
2023/12/28 02:16:47;;;;;;;4.50;2.43;;;;;;;6.04;100.00;96525.28;5037313;28;20689;-68
2023/12/28 02:19:24;;;;;;;5.00;2.70;;;;;;;6.04;100.00;96535.75;5038230;28;20213;-68
2023/12/28 02:21:51;;;;;;;4.87;2.47;;;;;;;5.87;100.00;96537.31;5037569;28;20226;-67
2023/12/28 02:24:17;;;;;;;6.17;2.80;;;;;;;5.86;100.00;96535.66;5036842;28;20585;-67
2023/12/28 02:26:45;;;;;;;5.20;2.57;;;;;;;5.98;100.00;96534.50;5036852;28;20252;-67
2023/12/28 02:29:11;;;;;;;4.37;2.80;;;;;;;5.83;100.00;96533.31;5036964;28;20217;-68
2023/12/28 02:31:45;;;;;;;6.77;2.83;;;;;;;5.96;100.00;96533.00;5036823;28;20201;-67
2023/12/28 02:34:20;;;;;;;5.83;2.77;;;;;;;5.80;100.00;96523.13;5038343;28;20229;-68
2023/12/28 02:36:48;;;;;;;4.33;2.30;;;;;;;5.69;100.00;96528.50;5037479;28;20204;-67
2023/12/28 02:39:17;;;;;;;8.77;2.50;;;;;;;5.73;100.00;96529.06;5036428;28;20217;-67
2023/12/28 02:41:46;;;;;;;5.17;2.53;;;;;;;5.73;100.00;96523.81;5036789;28;20302;-68
2023/12/28 02:44:13;;;;;;;4.00;2.37;;;;;;;5.72;100.00;96530.00;5037497;28;20340;-67
2023/12/28 02:46:40;;;;;;;4.43;2.37;;;;;;;5.62;100.00;96539.66;5036193;28;20231;-67
2023/12/28 02:49:06;;;;;;;3.87;2.13;;;;;;;5.57;100.00;96539.25;5037005;28;20231;-68
2023/12/28 02:51:33;;;;;;;6.23;2.90;;;;;;;5.53;100.00;96535.25;5036894;28;20205;-67
2023/12/28 02:53:59;;;;;;;3.60;2.10;;;;;;;5.39;100.00;96545.31;5036113;28;21180;-67
2023/12/28 02:56:26;;;;;;;3.60;2.30;;;;;;;5.36;100.00;96554.25;5037301;28;20212;-67
2023/12/28 02:58:54;;;;;;;4.73;2.43;;;;;;;5.60;100.00;96552.03;5037141;28;20209;-67
2023/12/28 03:01:20;;;;;;;4.43;2.60;;;;;;;5.43;100.00;96538.84;5036735;28;20208;-67
2023/12/28 03:03:47;;;;;;;4.73;2.40;;;;;;;5.35;100.00;96552.59;5037365;28;20626;-67
2023/12/28 03:06:13;;;;;;;5.23;2.37;;;;;;;5.42;100.00;96553.69;5036748;28;20229;-67
2023/12/28 03:08:40;;;;;;;7.87;2.43;;;;;;;5.51;100.00;96538.03;5036283;28;20228;-67
2023/12/28 03:11:06;;;;;;;7.40;2.90;;;;;;;5.53;100.00;96546.53;5037007;28;20653;-68
2023/12/28 03:13:33;;;;;;;5.40;2.93;;;;;;;5.48;100.00;96543.50;5037413;28;20221;-67
2023/12/28 03:16:01;;;;;;;4.30;1.90;;;;;;;5.56;100.00;96540.19;5034567;28;21031;-67
2023/12/28 03:18:27;;;;;;;4.10;2.03;;;;;;;5.61;100.00;96532.78;5036837;28;20203;-68
2023/12/28 03:20:53;;;;;;;5.57;2.50;;;;;;;5.57;100.00;96534.81;5036733;28;20205;-68
2023/12/28 03:23:20;;;;;;;6.40;2.30;;;;;;;5.68;100.00;96534.69;5036053;28;20221;-67
2023/12/28 03:25:46;;;;;;;4.07;2.37;;;;;;;5.58;100.00;96530.44;5036058;28;20208;-67
2023/12/28 03:28:13;;;;;;;5.90;2.93;;;;;;;5.47;100.00;96543.66;5036792;28;20229;-67
2023/12/28 03:30:39;;;;;;;6.13;2.50;;;;;;;5.44;100.00;96542.13;5036208;28;20205;-68
2023/12/28 03:33:07;;;;;;;4.80;2.10;;;;;;;5.27;100.00;96549.88;5035615;28;20711;-67
2023/12/28 03:35:34;;;;;;;3.90;2.17;;;;;;;5.40;100.00;96554.78;5036591;28;20197;-67
2023/12/28 03:38:01;;;;;;;3.63;2.10;;;;;;;5.46;100.00;96552.47;5036192;28;21068;-68
2023/12/28 03:40:27;;;;;;;5.50;2.40;;;;;;;5.34;100.00;96545.72;5036374;28;20207;-68
2023/12/28 03:42:54;;;;;;;3.87;2.20;;;;;;;5.20;100.00;96550.53;5035587;28;20412;-68
2023/12/28 03:45:21;;;;;;;6.60;3.03;;;;;;;5.30;100.00;96544.34;5035594;28;20209;-68
2023/12/28 03:47:47;;;;;;;4.80;2.47;;;;;;;5.36;100.00;96554.25;5035414;28;20728;-67
2023/12/28 03:50:15;;;;;;;6.53;2.90;;;;;;;5.52;100.00;96546.69;5036782;28;20204;-67
2023/12/28 03:52:41;;;;;;;4.57;2.50;;;;;;;5.41;100.00;96549.44;5035264;28;20922;-68
2023/12/28 03:55:08;;;;;;;4.40;2.27;;;;;;;5.50;100.00;96533.75;5035452;28;20208;-67
2023/12/28 03:57:35;;;;;;;3.83;2.10;;;;;;;5.38;100.00;96539.25;5035899;28;20201;-67
2023/12/28 04:00:01;;;;;;;4.00;2.33;;;;;;;5.49;100.00;96532.09;5036172;28;20208;-68
2023/12/28 04:02:31;;;;;;;5.67;2.97;;;;;;;5.45;100.00;96537.75;5035361;28;20603;-67
2023/12/28 04:04:58;;;;;;;6.40;2.40;;;;;;;5.41;100.00;96536.38;5035937;28;20209;-68
2023/12/28 04:07:26;;;;;;;7.07;2.87;;;;;;;5.52;100.00;96533.59;5035807;28;20709;-67
2023/12/28 04:09:52;;;;;;;7.13;2.40;;;;;;;5.35;100.00;96536.13;5035510;28;20208;-67
2023/12/28 04:12:19;;;;;;;4.77;2.77;;;;;;;5.40;100.00;96534.72;5035791;28;20674;-67
2023/12/28 04:14:45;;;;;;;4.13;2.53;;;;;;;5.38;100.00;96546.28;5035910;28;20205;-67
2023/12/28 04:17:12;;;;;;;4.87;2.53;;;;;;;5.35;100.00;96538.72;5035545;28;20205;-67
2023/12/28 04:19:38;;;;;;;5.30;2.63;;;;;;;5.45;100.00;96537.75;5036523;28;20583;-67
2023/12/28 04:22:05;;;;;;;2.60;2.00;;;;;;;5.41;100.00;96535.53;5036234;28;20208;-68
2023/12/28 04:24:33;;;;;;;5.80;2.77;;;;;;;5.51;100.00;96527.56;5035515;28;20235;-67
2023/12/28 04:26:59;;;;;;;7.27;3.27;;;;;;;5.23;100.00;96539.81;5035686;28;20207;-67
2023/12/28 04:29:26;;;;;;;5.23;2.80;;;;;;;5.12;100.00;96542.56;5035993;28;20205;-67
2023/12/28 04:31:52;;;;;;;4.57;2.63;;;;;;;5.20;100.00;96540.09;5035269;28;21096;-67
2023/12/28 04:34:18;;;;;;;5.10;2.53;;;;;;;5.23;100.00;96539.81;5035938;28;20232;-67
2023/12/28 04:36:46;;;;;;;5.33;2.73;;;;;;;5.09;100.00;96541.06;5035300;28;20220;-67
2023/12/28 04:39:13;;;;;;;5.57;2.47;;;;;;;5.14;100.00;96551.94;5035651;28;20228;-67
2023/12/28 04:41:41;;;;;;;6.87;2.53;;;;;;;5.27;100.00;96560.31;5035295;28;20288;-67
2023/12/28 04:44:07;;;;;;;4.30;2.60;;;;;;;4.77;100.00;96555.28;5035393;28;20247;-67
2023/12/28 04:46:38;;;;;;;6.63;3.07;;;;;;;5.10;100.00;96549.72;5035193;28;20210;-67
2023/12/28 04:49:05;;;;;;;4.20;2.33;;;;;;;4.93;100.00;96545.97;5035572;28;20239;-67
2023/12/28 04:51:31;;;;;;;3.20;1.73;;;;;;;5.00;100.00;96549.72;5037405;28;20210;-67
2023/12/28 04:53:58;;;;;;;5.20;2.90;;;;;;;5.02;100.00;96555.59;5039367;28;20224;-67
2023/12/28 04:56:24;;;;;;;5.30;2.50;;;;;;;4.94;100.00;96552.84;5038801;28;20219;-67
2023/12/28 04:58:52;;;;;;;4.67;2.33;;;;;;;5.08;100.00;96552.47;5038806;28;20581;-67
2023/12/28 05:01:18;;;;;;;8.27;2.40;;;;;;;4.91;100.00;96557.50;5039596;28;20220;-67
2023/12/28 05:03:45;;;;;;;4.70;2.50;;;;;;;4.88;100.00;96555.19;5037841;28;20722;-67
2023/12/28 05:06:11;;;;;;;6.80;3.00;;;;;;;4.83;100.00;96560.78;5039138;28;20215;-67
2023/12/28 05:08:38;;;;;;;6.97;2.97;;;;;;;4.83;100.00;96559.97;5038717;28;20228;-67
2023/12/28 05:11:06;;;;;;;7.37;2.93;;;;;;;4.95;100.00;96554.50;5039261;28;20582;-67
2023/12/28 05:13:34;;;;;;;4.97;2.87;;;;;;;4.71;100.00;96555.00;5038799;28;20230;-67
2023/12/28 05:16:02;;;;;;;4.43;2.30;;;;;;;4.88;100.00;96568.22;5039232;28;20747;-67
2023/12/28 05:18:28;;;;;;;4.80;2.57;;;;;;;4.73;100.00;96563.53;5038639;28;20250;-67
2023/12/28 05:20:55;;;;;;;10.03;3.10;;;;;;;4.50;100.00;96559.47;5039069;28;20205;-67
2023/12/28 05:23:21;;;;;;;6.93;2.73;;;;;;;4.59;100.00;96561.28;5037797;28;20743;-67
2023/12/28 05:25:48;;;;;;;6.47;2.77;;;;;;;4.66;100.00;96558.03;5037909;28;20216;-67
2023/12/28 05:28:14;;;;;;;4.70;2.73;;;;;;;4.64;100.00;96553.91;5038887;28;20246;-67
2023/12/28 05:30:41;;;;;;;5.87;2.87;;;;;;;4.59;100.00;96546.44;5039146;28;20208;-67
2023/12/28 05:33:09;;;;;;;6.67;2.60;;;;;;;4.77;100.00;96562.31;5038341;28;20232;-67
2023/12/28 05:35:36;;;;;;;7.63;3.40;;;;;;;4.58;100.00;96555.25;5038091;28;20202;-67
2023/12/28 05:38:02;;;;;;;7.10;3.07;;;;;;;4.64;100.00;96564.34;5039345;28;20574;-67
2023/12/28 05:40:29;;;;;;;5.33;2.97;;;;;;;4.66;100.00;96558.03;5038443;28;20200;-67
2023/12/28 05:42:55;;;;;;;7.37;2.97;;;;;;;4.72;100.00;96560.06;5037811;28;20258;-67
2023/12/28 05:45:22;;;;;;;7.43;3.40;;;;;;;4.77;100.00;96564.91;5038378;28;20205;-67
2023/12/28 05:47:48;;;;;;;5.43;3.03;;;;;;;4.78;100.00;96571.78;5038488;28;20255;-67
2023/12/28 05:50:16;;;;;;;7.67;3.33;;;;;;;4.85;100.00;96563.28;5038642;28;20224;-67
2023/12/28 05:52:43;;;;;;;5.80;3.30;;;;;;;4.66;100.00;96559.78;5036912;28;20226;-67
2023/12/28 05:55:09;;;;;;;5.23;2.70;;;;;;;4.63;100.00;96560.88;5038341;28;20259;-67
2023/12/28 05:57:35;;;;;;;4.67;2.80;;;;;;;4.59;100.00;96556.06;5038215;28;20197;-67
2023/12/28 06:00:03;;;;;;;6.13;3.27;;;;;;;4.54;100.00;96553.84;5038827;28;20744;-67
2023/12/28 06:02:31;;;;;;;4.93;2.50;;;;;;;4.65;100.00;96555.56;5037123;28;20219;-67
2023/12/28 06:04:57;;;;;;;4.60;2.57;;;;;;;4.65;100.00;96555.56;5037976;28;20299;-67
2023/12/28 06:07:25;;;;;;;10.37;3.20;;;;;;;4.74;100.00;96552.94;5037598;28;20702;-67
2023/12/28 06:09:52;;;;;;;7.73;3.63;;;;;;;4.62;100.00;96547.97;5038051;28;20271;-67
2023/12/28 06:12:18;;;;;;;6.17;2.97;;;;;;;4.59;100.00;96545.63;5037469;28;20212;-67
2023/12/28 06:14:45;;;;;;;5.63;3.00;;;;;;;4.51;100.00;96555.91;5037689;28;20215;-67
2023/12/28 06:17:11;;;;;;;8.07;3.80;;;;;;;4.41;100.00;96545.44;5037757;28;20208;-67
2023/12/28 06:19:38;;;;;;;6.47;3.33;;;;;;;4.47;100.00;96544.91;5037469;28;20231;-67
2023/12/28 06:22:05;;;;;;;8.70;3.93;;;;;;;4.56;100.00;96551.13;5037420;28;20241;-67
2023/12/28 06:24:33;;;;;;;11.37;3.90;;;;;;;4.56;100.00;96540.69;5036512;28;20606;-67
2023/12/28 06:27:01;;;;;;;26.23;9.07;;;;;;;4.60;100.00;96532.44;5037329;28;20327;-67
2023/12/28 06:29:27;;;;;;;17.33;7.07;;;;;;;4.49;100.00;96539.56;5037919;28;20225;-67
2023/12/28 06:31:53;;;;;;;9.63;4.03;;;;;;;4.12;100.00;96555.91;5036909;28;20209;-67
2023/12/28 06:34:20;;;;;;;9.67;4.20;;;;;;;4.10;100.00;96576.91;5037199;28;20614;-67
2023/12/28 06:36:46;;;;;;;12.67;4.07;;;;;;;4.24;100.00;96577.38;5037705;28;21101;-67
2023/12/28 06:39:13;;;;;;;8.73;3.43;;;;;;;4.28;100.00;96583.16;5037620;28;20201;-67
2023/12/28 06:41:41;;;;;;;8.83;3.40;;;;;;;4.58;100.00;96577.91;5036455;28;20211;-67
2023/12/28 06:44:08;;;;;;;9.27;4.27;;;;;;;4.49;100.00;96573.47;5036392;28;20228;-67
2023/12/28 06:46:35;;;;;;;9.20;3.27;;;;;;;4.45;100.00;96577.31;5036927;28;20720;-67
2023/12/28 06:49:02;;;;;;;7.77;3.87;;;;;;;4.57;100.00;96584.06;5036997;28;20232;-68
2023/12/28 06:51:28;;;;;;;9.87;3.83;;;;;;;4.61;100.00;96596.75;5036734;28;20206;-67
2023/12/28 06:53:55;;;;;;;6.23;3.23;;;;;;;4.63;100.00;96594.00;5037490;28;20605;-67
2023/12/28 06:56:21;;;;;;;7.57;4.00;;;;;;;4.77;100.00;96591.00;5036602;28;20205;-67
2023/12/28 06:58:49;;;;;;;12.43;4.33;;;;;;;4.93;100.00;96584.31;5036525;28;20204;-67
2023/12/28 07:01:16;;;;;;;9.10;3.40;;;;;;;4.90;100.00;96588.03;5036680;28;20204;-67
2023/12/28 07:03:42;;;;;;;5.93;3.07;;;;;;;4.88;100.00;96592.53;5036282;28;20240;-67
2023/12/28 07:06:09;;;;;;;6.47;3.33;;;;;;;5.02;100.00;96586.94;5032882;28;20212;-67
2023/12/28 07:08:35;;;;;;;6.40;3.03;;;;;;;5.09;100.00;96588.06;5032640;28;20250;-68
2023/12/28 07:11:03;;;;;;;6.97;3.13;;;;;;;5.09;100.00;96582.84;5031127;28;20879;-67
2023/12/28 07:13:29;;;;;;;8.57;3.40;;;;;;;5.13;100.00;96589.44;5030712;28;20721;-67
2023/12/28 07:15:57;;;;;;;5.47;2.80;;;;;;;5.29;100.00;96579.28;5035795;28;20208;-67
2023/12/28 07:18:24;;;;;;;5.63;3.00;;;;;;;5.21;100.00;96588.78;5035471;28;20215;-67
2023/12/28 07:20:50;;;;;;;5.97;3.57;;;;;;;5.22;100.00;96590.41;5037414;28;20212;-67
2023/12/28 07:23:17;;;;;;;10.13;3.83;;;;;;;5.36;100.00;96590.84;5035760;28;20231;-68
2023/12/28 07:25:44;;;;;;;8.53;3.77;;;;;;;5.42;100.00;96592.88;5036208;28;20211;-67
2023/12/28 07:28:10;;;;;;;5.07;2.80;;;;;;;5.42;100.00;96592.06;5036737;28;20244;-68
2023/12/28 07:30:37;;;;;;;6.87;3.40;;;;;;;5.61;100.00;96595.50;5036504;28;20211;-67
2023/12/28 07:33:05;;;;;;;6.50;3.27;;;;;;;6.29;100.00;96589.09;5035750;28;20229;-68
2023/12/28 07:35:32;;;;;;;26.50;4.10;;;;;;;6.48;100.00;96589.03;5036191;28;20209;-68
2023/12/28 07:37:58;;;;;;;7.68;3.40;;;;;;;6.98;100.00;96593.72;5036128;28;20449;-67
2023/12/28 07:40:25;;;;;;;4.00;2.40;;;;;;;6.87;100.00;96587.88;5035604;28;20213;-68
2023/12/28 07:42:51;;;;;;;8.40;3.33;;;;;;;6.74;100.00;96588.19;5036228;28;20600;-67
2023/12/28 07:45:17;;;;;;;7.00;3.20;;;;;;;6.59;100.00;96591.44;5033298;28;20209;-68
2023/12/28 07:47:44;;;;;;;5.27;2.73;;;;;;;6.64;100.00;96604.13;5033292;28;20294;-68
2023/12/28 07:50:12;;;;;;;3.63;2.50;;;;;;;6.58;100.00;96600.28;5035388;28;20602;-67
2023/12/28 07:52:39;;;;;;;4.60;2.67;;;;;;;6.14;100.00;96600.97;5033758;28;20229;-67
2023/12/28 07:55:06;;;;;;;4.53;2.73;;;;;;;6.29;100.00;96596.94;5034787;28;20215;-67
2023/12/28 07:57:34;;;;;;;5.47;2.80;;;;;;;6.17;100.00;96595.47;5033983;28;20208;-66
2023/12/28 08:00:00;;;;;;;6.77;2.73;;;;;;;6.42;100.00;96594.00;5034899;28;20553;-67
2023/12/28 08:02:27;;;;;;;6.73;3.40;;;;;;;6.58;100.00;96596.84;5033341;28;20243;-67
2023/12/28 08:04:54;;;;;;;6.33;3.20;;;;;;;6.52;100.00;96595.63;5035063;28;20306;-67
2023/12/28 08:07:22;;;;;;;7.93;3.03;;;;;;;6.67;100.00;96587.16;5033955;28;20713;-67
2023/12/28 08:09:49;;;;;;;6.13;3.10;;;;;;;6.61;100.00;96589.53;5034608;28;20228;-67
2023/12/28 08:12:15;;;;;;;5.87;2.93;;;;;;;6.65;100.00;96590.88;5032906;28;20209;-67
2023/12/28 08:14:42;;;;;;;5.20;3.17;;;;;;;6.69;100.00;96600.94;5034442;28;20208;-67
2023/12/28 08:17:08;;;;;;;5.73;3.33;;;;;;;6.67;100.00;96604.66;5034555;28;21419;-68
2023/12/28 08:19:35;;;;;;;6.03;3.00;;;;;;;6.71;100.00;96600.78;5034258;28;20204;-68
2023/12/28 08:22:02;;;;;;;7.60;2.63;;;;;;;6.66;100.00;96592.53;5033110;28;20209;-67
2023/12/28 08:24:30;;;;;;;8.30;3.20;;;;;;;6.72;100.00;96592.78;5031612;28;20340;-67
2023/12/28 08:26:59;;;;;;;4.23;2.60;;;;;;;6.72;100.00;96603.25;5036659;28;20205;-68
2023/12/28 08:29:25;;;;;;;5.47;3.00;;;;;;;6.89;100.00;96596.41;5038317;28;20300;-67
2023/12/28 08:31:52;;;;;;;5.73;3.10;;;;;;;6.75;100.00;96602.13;5037597;28;20203;-67
2023/12/28 08:34:18;;;;;;;5.87;2.80;;;;;;;6.87;100.00;96596.56;5037716;28;20235;-67
2023/12/28 08:36:45;;;;;;;4.27;2.23;;;;;;;6.71;100.00;96600.78;5037612;28;20209;-68
2023/12/28 08:39:12;;;;;;;5.63;2.70;;;;;;;6.93;100.00;96614.31;5038364;28;20209;-67
2023/12/28 08:41:39;;;;;;;5.20;2.60;;;;;;;7.57;100.00;96607.94;5036502;28;20745;-68
2023/12/28 08:44:06;;;;;;;5.33;2.70;;;;;;;7.18;100.00;96616.25;5037500;28;20229;-67
2023/12/28 08:46:33;;;;;;;5.90;3.07;;;;;;;7.31;100.00;96620.16;5036819;28;21040;-67
2023/12/28 08:48:59;;;;;;;5.40;2.87;;;;;;;7.28;100.00;96619.63;5037898;28;20232;-68
2023/12/28 08:51:25;;;;;;;6.03;2.67;;;;;;;7.07;100.00;96618.25;5037474;28;20602;-68
2023/12/28 08:53:52;;;;;;;5.20;2.80;;;;;;;7.01;100.00;96610.97;5037960;28;20235;-68
2023/12/28 08:56:21;;;;;;;8.93;3.30;;;;;;;7.27;100.00;96605.69;5036874;28;21118;-68
2023/12/28 08:58:50;;;;;;;5.43;2.70;;;;;;;7.26;100.00;96605.03;5037860;28;20201;-67
2023/12/28 09:01:17;;;;;;;5.13;3.17;;;;;;;7.15;100.00;96606.03;5037528;28;20453;-68
2023/12/28 09:03:44;;;;;;;8.33;2.73;;;;;;;7.30;100.00;96601.94;5037635;28;20228;-67
2023/12/28 09:06:10;;;;;;;5.13;2.63;;;;;;;7.34;100.00;96612.00;5037864;28;20209;-67
2023/12/28 09:08:37;;;;;;;5.80;2.53;;;;;;;7.28;100.00;96604.72;5037135;28;20216;-68
2023/12/28 09:11:04;;;;;;;4.47;2.77;;;;;;;7.46;100.00;96605.56;5037120;28;20213;-67
2023/12/28 09:13:31;;;;;;;4.70;2.47;;;;;;;7.38;100.00;96602.88;5036438;28;20221;-67
2023/12/28 09:15:59;;;;;;;4.73;2.77;;;;;;;7.46;100.00;96605.56;5037918;28;20202;-68
2023/12/28 09:18:25;;;;;;;7.47;3.27;;;;;;;7.30;100.00;96605.38;5037603;28;20201;-69
2023/12/28 09:20:52;;;;;;;5.10;2.77;;;;;;;7.34;100.00;96611.16;5038274;28;20588;-68
2023/12/28 09:23:18;;;;;;;6.43;3.30;;;;;;;7.32;100.00;96616.56;5036582;28;20232;-68
2023/12/28 09:25:45;;;;;;;7.50;3.27;;;;;;;7.49;100.00;96620.97;5038041;28;20205;-67
2023/12/28 09:28:13;;;;;;;8.77;3.93;;;;;;;7.45;100.00;96614.38;5037869;28;20681;-68
2023/12/28 09:30:39;;;;;;;5.07;3.03;;;;;;;7.49;100.00;96620.97;5037680;28;20308;-68
2023/12/28 09:33:07;;;;;;;3.70;2.40;;;;;;;7.55;100.00;96617.78;5036630;28;20729;-67
2023/12/28 09:35:35;;;;;;;5.77;2.83;;;;;;;7.20;100.00;96631.81;5037144;28;20201;-67
2023/12/28 09:38:02;;;;;;;7.13;2.97;;;;;;;7.52;100.00;96641.69;5038815;28;20296;-68
2023/12/28 09:40:28;;;;;;;7.53;3.17;;;;;;;7.48;100.00;96637.69;5037340;28;20204;-68
2023/12/28 09:43:05;;;;;;;5.23;3.27;;;;;;;7.61;100.00;96627.69;5036871;28;20231;-68
2023/12/28 09:45:31;;;;;;;4.90;2.83;;;;;;;7.51;100.00;96632.16;5037288;28;20197;-68
2023/12/28 09:47:58;;;;;;;7.70;2.50;;;;;;;7.52;100.00;96630.34;5037734;28;20205;-68
2023/12/28 09:50:26;;;;;;;4.90;2.90;;;;;;;7.47;100.00;96625.56;5035919;28;20228;-68
2023/12/28 09:52:53;;;;;;;5.57;2.60;;;;;;;7.70;100.00;96618.91;5036819;28;20221;-68
2023/12/28 09:55:20;;;;;;;8.43;3.23;;;;;;;7.54;100.00;96615.31;5038064;28;20356;-68
2023/12/28 09:57:47;;;;;;;5.03;2.83;;;;;;;7.63;100.00;96612.59;5036562;28;20572;-68
2023/12/28 10:00:14;;;;;;;4.80;2.90;;;;;;;7.76;100.00;96617.47;5037433;28;20201;-68
2023/12/28 10:02:44;;;;;;;5.77;2.90;;;;;;;7.84;100.00;96605.25;5035801;28;20225;-67
2023/12/28 10:05:13;;;;;;;7.53;3.63;;;;;;;8.09;100.00;96609.72;5037134;28;20583;-67
2023/12/28 10:07:43;;;;;;;6.57;2.70;;;;;;;8.18;100.00;96598.31;5036545;28;20228;-67
2023/12/28 10:10:10;;;;;;;4.87;2.83;;;;;;;7.98;99.97;96589.78;5037174;28;20217;-68
2023/12/28 10:12:36;;;;;;;7.83;3.13;;;;;;;7.92;99.64;96592.19;5035891;28;20232;-67
2023/12/28 10:15:04;;;;;;;6.03;2.53;;;;;;;8.15;99.50;96588.13;5037871;28;20197;-68
2023/12/28 10:17:30;;;;;;;5.17;2.33;;;;;;;7.86;99.23;96584.94;5036315;28;20201;-68
2023/12/28 10:20:03;;;;;;;7.27;2.83;;;;;;;7.95;99.10;96581.41;5037124;28;20674;-68
2023/12/28 10:22:30;;;;;;;3.77;2.30;;;;;;;8.14;97.20;96581.25;5035450;28;20208;-68
2023/12/28 10:24:59;;;;;;;4.10;2.37;;;;;;;8.39;96.16;96585.66;5036985;28;20204;-68
2023/12/28 10:27:25;;;;;;;6.63;2.83;;;;;;;8.24;95.90;96589.84;5036540;28;20212;-67
2023/12/28 10:29:54;;;;;;;5.30;2.73;;;;;;;8.35;97.24;96587.78;5037036;28;20224;-67
2023/12/28 10:32:21;;;;;;;6.40;3.10;;;;;;;8.22;98.51;96584.75;5036668;28;20204;-67
2023/12/28 10:34:47;;;;;;;5.70;2.43;;;;;;;8.16;98.97;96576.63;5036033;28;20580;-67
2023/12/28 10:37:15;;;;;;;5.97;3.27;;;;;;;8.38;98.71;96579.59;5037636;28;20634;-67
2023/12/28 10:39:47;;;;;;;4.37;2.77;;;;;;;8.52;99.90;96566.69;5036543;28;20874;-67
2023/12/28 10:42:24;;;;;;;3.80;2.13;;;;;;;8.71;98.29;96563.03;5036529;28;20204;-67
2023/12/28 10:44:55;;;;;;;4.53;2.50;;;;;;;8.81;97.82;96569.78;5037183;28;20197;-68
2023/12/28 10:47:26;;;;;;;5.53;2.53;;;;;;;8.64;95.00;96567.25;5036347;28;20205;-68
2023/12/28 10:49:55;;;;;;;5.40;2.43;;;;;;;8.79;94.92;96558.59;5035058;28;20590;-68
2023/12/28 10:52:27;;;;;;;5.93;2.63;;;;;;;8.75;95.54;96566.97;5036171;28;20208;-68
2023/12/28 10:55:06;;;;;;;6.20;2.60;;;;;;;8.89;93.81;96572.44;5035352;28;21152;-68
2023/12/28 10:57:39;;;;;;;3.97;2.20;;;;;;;8.93;92.92;96565.88;5035639;28;21147;-68
2023/12/28 11:00:11;;;;;;;3.33;2.03;;;;;;;8.99;92.79;96570.50;5036489;28;20202;-68
2023/12/28 11:02:41;;;;;;;4.37;2.40;;;;;;;8.68;94.90;96572.03;5034994;28;20251;-68
2023/12/28 11:05:08;;;;;;;6.60;2.47;;;;;;;8.90;94.00;96574.09;5035960;28;20205;-68
2023/12/28 11:07:37;;;;;;;3.43;2.10;;;;;;;9.02;95.13;96564.13;5035981;28;20575;-68
2023/12/28 11:10:07;;;;;;;3.90;2.40;;;;;;;9.00;94.48;96566.91;5035630;28;20222;-67
2023/12/28 11:12:36;;;;;;;5.47;2.63;;;;;;;8.86;95.01;96564.03;5035028;28;20300;-68
2023/12/28 11:15:04;;;;;;;3.70;1.90;;;;;;;9.01;93.67;96560.66;5035937;28;20196;-68
2023/12/28 11:17:31;;;;;;;3.03;2.10;;;;;;;8.95;93.89;96563.09;5035152;28;20270;-68
2023/12/28 11:19:59;;;;;;;4.93;2.47;;;;;;;8.86;93.75;96569.31;5035772;28;20193;-68
2023/12/28 11:22:26;;;;;;;6.57;1.93;;;;;;;8.88;100.00;96562.91;5034847;28;20292;-68
2023/12/28 11:24:54;;;;;;;8.53;2.17;;;;;;;9.01;97.52;96558.03;5035281;28;20211;-68
2023/12/28 11:27:20;;;;;;;5.87;2.53;;;;;;;9.50;100.00;96559.81;5036196;28;20201;-68
2023/12/28 11:29:51;;;;;;;2.70;1.80;;;;;;;9.50;90.49;96544.81;5034732;28;20222;-67
2023/12/28 11:32:20;;;;;;;3.47;2.03;;;;;;;9.38;91.22;96550.56;5035110;28;20213;-67
2023/12/28 11:34:58;;;;;;;4.00;2.10;;;;;;;9.52;91.29;96539.41;5035224;28;20216;-67